createdAt,value
2022-12-12T00:01:53.719Z,11.07
2022-12-12T00:04:20.647Z,11.57
2022-12-12T00:06:47.505Z,12.33
2022-12-12T00:09:14.420Z,11.77
2022-12-12T00:11:41.588Z,11.30
2022-12-12T00:14:08.478Z,11.93
2022-12-12T00:16:35.911Z,12.10
2022-12-12T00:19:02.663Z,12.10
2022-12-12T00:21:29.991Z,12.23
2022-12-12T00:23:57.582Z,12.00
2022-12-12T00:26:29.188Z,12.07
2022-12-12T00:28:57.267Z,12.03
2022-12-12T00:31:24.340Z,12.73
2022-12-12T00:33:51.406Z,12.23
2022-12-12T00:36:20.116Z,12.30
2022-12-12T00:38:47.583Z,12.23
2022-12-12T00:41:15.415Z,12.10
2022-12-12T00:43:42.694Z,11.53
2022-12-12T00:46:13.388Z,12.50
2022-12-12T00:48:40.265Z,12.00
2022-12-12T00:51:14.417Z,12.43
2022-12-12T00:53:41.275Z,11.70
2022-12-12T00:56:08.148Z,12.50
2022-12-12T00:59:25.794Z,13.00
2022-12-12T01:01:52.815Z,12.23
2022-12-12T01:04:20.088Z,12.53
2022-12-12T01:06:49.856Z,12.73
2022-12-12T01:09:17.048Z,12.77
2022-12-12T01:11:55.179Z,12.50
2022-12-12T01:14:23.684Z,13.33
2022-12-12T01:16:53.661Z,12.13
2022-12-12T01:19:31.662Z,13.13
2022-12-12T01:22:02.547Z,13.13
2022-12-12T01:24:29.929Z,11.83
2022-12-12T01:26:57.209Z,12.80
2022-12-12T01:29:24.518Z,13.93
2022-12-12T01:32:27.291Z,13.90
2022-12-12T01:35:26.417Z,13.50
2022-12-12T01:38:03.628Z,13.87
2022-12-12T01:40:31.570Z,13.73
2022-12-12T01:43:00.255Z,15.17
2022-12-12T01:46:05.912Z,14.83
2022-12-12T01:49:06.882Z,14.93
2022-12-12T01:51:37.988Z,14.10
2022-12-12T01:54:30.964Z,14.40
2022-12-12T01:57:01.173Z,14.07
2022-12-12T01:59:42.166Z,14.73
2022-12-12T02:02:30.796Z,13.97
2022-12-12T02:06:02.712Z,12.80
2022-12-12T02:08:34.439Z,13.47
2022-12-12T02:11:03.325Z,13.30
2022-12-12T02:13:41.229Z,12.60
2022-12-12T02:16:44.109Z,13.33
2022-12-12T02:19:45.383Z,12.83
2022-12-12T02:22:44.449Z,12.07
2022-12-12T02:25:59.676Z,11.87
2022-12-12T02:29:05.494Z,12.00
2022-12-12T02:32:22.237Z,10.90
2022-12-12T02:35:13.144Z,10.67
2022-12-12T02:38:02.378Z,11.07
2022-12-12T02:40:37.356Z,10.53
2022-12-12T02:43:22.476Z,11.23
2022-12-12T02:46:00.518Z,10.87
2022-12-12T02:48:49.339Z,10.60
2022-12-12T02:51:19.248Z,10.33
2022-12-12T02:53:49.419Z,10.13
2022-12-12T02:56:44.151Z,9.93
2022-12-12T02:59:22.171Z,9.87
2022-12-12T03:02:04.947Z,9.43
2022-12-12T03:04:58.424Z,10.20
2022-12-12T03:08:30.781Z,9.20
2022-12-12T03:11:00.047Z,9.27
2022-12-12T03:13:36.035Z,9.57
2022-12-12T03:16:46.285Z,8.17
2022-12-12T03:19:49.787Z,8.80
2022-12-12T03:22:48.949Z,8.30
2022-12-12T03:25:46.341Z,8.80
2022-12-12T03:28:29.011Z,8.90
2022-12-12T03:31:05.621Z,8.23
2022-12-12T03:34:00.167Z,8.87
2022-12-12T03:36:40.506Z,8.13
2022-12-12T03:39:15.055Z,8.47
2022-12-12T03:41:47.095Z,9.57
2022-12-12T03:44:35.505Z,10.37
2022-12-12T03:47:11.950Z,10.67
2022-12-12T03:49:54.371Z,12.07
2022-12-12T03:52:28.080Z,11.57
2022-12-12T03:55:08.537Z,11.40
2022-12-12T03:57:43.779Z,11.03
2022-12-12T04:00:14.992Z,11.27
2022-12-12T04:02:44.539Z,10.77
2022-12-12T04:05:28.379Z,10.30
2022-12-12T04:08:04.134Z,10.03
2022-12-12T04:11:00.552Z,10.00
2022-12-12T04:13:57.584Z,9.90
2022-12-12T04:16:31.197Z,9.23
2022-12-12T04:19:01.172Z,9.60
2022-12-12T04:22:05.499Z,8.90
2022-12-12T04:24:50.266Z,8.83
2022-12-12T04:27:29.316Z,9.10
2022-12-12T04:30:07.186Z,9.30
2022-12-12T04:32:46.256Z,9.33
2022-12-12T04:35:31.812Z,8.93
2022-12-12T04:38:03.494Z,9.57
2022-12-12T04:40:36.295Z,9.53
2022-12-12T04:43:12.457Z,9.57
2022-12-12T04:45:52.126Z,9.33
2022-12-12T04:48:23.960Z,9.93
2022-12-12T04:50:53.956Z,9.80
2022-12-12T04:53:38.612Z,9.43
2022-12-12T04:56:11.589Z,10.10
2022-12-12T04:58:40.256Z,9.90
2022-12-12T05:01:19.623Z,9.20
2022-12-12T05:04:01.032Z,10.27
2022-12-12T05:06:33.544Z,9.83
2022-12-12T05:09:02.123Z,9.80
2022-12-12T05:11:29.560Z,9.20
2022-12-12T05:13:56.479Z,9.73
2022-12-12T05:16:27.022Z,9.80
2022-12-12T05:18:53.993Z,9.70
2022-12-12T05:21:21.069Z,9.83
2022-12-12T05:23:48.103Z,9.30
2022-12-12T05:26:29.940Z,10.50
2022-12-12T05:28:59.910Z,9.83
2022-12-12T05:31:30.679Z,10.30
2022-12-12T05:33:57.595Z,10.93
2022-12-12T05:36:24.548Z,10.30
2022-12-12T05:38:51.790Z,10.63
2022-12-12T05:41:18.773Z,10.70
2022-12-12T05:43:45.696Z,12.07
2022-12-12T05:46:12.611Z,12.30
2022-12-12T05:48:39.858Z,11.53
2022-12-12T05:51:06.814Z,11.73
2022-12-12T05:53:42.000Z,12.37
2022-12-12T05:56:11.573Z,13.90
2022-12-12T05:58:39.778Z,13.20
2022-12-12T06:01:06.997Z,12.83
2022-12-12T06:03:38.752Z,14.40
2022-12-12T06:06:06.270Z,14.37
2022-12-12T06:08:33.309Z,13.43
2022-12-12T06:11:00.373Z,15.37
2022-12-12T06:13:27.362Z,14.40
2022-12-12T06:15:54.264Z,14.17
2022-12-12T06:18:21.296Z,14.03
2022-12-12T06:20:48.296Z,15.13
2022-12-12T06:23:15.283Z,15.27
2022-12-12T06:25:42.253Z,15.47
2022-12-12T06:28:09.130Z,14.60
2022-12-12T06:30:35.937Z,15.07
2022-12-12T06:33:02.877Z,15.00
2022-12-12T06:35:29.815Z,14.90
2022-12-12T06:37:57.046Z,14.67
2022-12-12T06:40:24.212Z,14.73
2022-12-12T06:42:51.232Z,15.30
2022-12-12T06:45:18.415Z,15.67
2022-12-12T06:47:45.408Z,13.73
2022-12-12T06:50:12.656Z,15.50
2022-12-12T06:52:42.309Z,14.43
2022-12-12T06:55:09.565Z,14.07
2022-12-12T06:57:36.597Z,14.23
2022-12-12T07:00:05.024Z,15.43
2022-12-12T07:02:31.976Z,14.77
2022-12-12T07:04:59.071Z,15.40
2022-12-12T07:07:26.306Z,14.83
2022-12-12T07:09:53.625Z,15.47
2022-12-12T07:12:20.723Z,15.33
2022-12-12T07:14:50.318Z,15.27
2022-12-12T07:17:17.285Z,15.30
2022-12-12T07:19:44.834Z,14.80
2022-12-12T07:22:12.520Z,15.17
2022-12-12T07:24:39.876Z,14.47
2022-12-12T07:27:07.068Z,15.87
2022-12-12T07:29:34.190Z,15.27
2022-12-12T07:32:01.197Z,14.60
2022-12-12T07:34:31.240Z,14.63
2022-12-12T07:37:02.889Z,15.73
2022-12-12T07:39:34.808Z,13.63
2022-12-12T07:42:01.698Z,14.63
2022-12-12T07:44:28.619Z,15.40
2022-12-12T07:46:59.161Z,15.93
2022-12-12T07:49:28.074Z,16.40
2022-12-12T07:51:55.357Z,15.00
2022-12-12T07:54:22.362Z,15.30
2022-12-12T07:56:49.226Z,15.37
2022-12-12T07:59:17.571Z,16.33
2022-12-12T08:01:44.531Z,15.13
2022-12-12T08:04:11.488Z,15.10
2022-12-12T08:06:38.459Z,14.30
2022-12-12T08:09:05.475Z,14.77
2022-12-12T08:11:32.471Z,15.23
2022-12-12T08:13:59.687Z,13.87
2022-12-12T08:16:28.605Z,14.17
2022-12-12T08:18:57.087Z,14.50
2022-12-12T08:21:26.206Z,14.93
2022-12-12T08:24:02.302Z,14.97
2022-12-12T08:26:30.383Z,14.63
2022-12-12T08:28:57.789Z,14.70
2022-12-12T08:31:25.799Z,13.60
2022-12-12T08:33:57.354Z,14.43
2022-12-12T08:36:26.875Z,14.37
2022-12-12T08:38:53.960Z,14.80
2022-12-12T08:41:20.922Z,14.13
2022-12-12T08:43:48.546Z,13.70
2022-12-12T08:46:18.489Z,14.13
2022-12-12T08:48:46.984Z,13.60
2022-12-12T08:51:15.302Z,13.10
2022-12-12T08:53:51.797Z,13.57
2022-12-12T08:56:20.537Z,11.97
2022-12-12T08:58:48.052Z,12.50
2022-12-12T09:01:28.771Z,11.80
2022-12-12T09:03:57.136Z,11.93
2022-12-12T09:06:25.352Z,11.07
2022-12-12T09:08:52.831Z,11.73
2022-12-12T09:11:19.930Z,10.77
2022-12-12T09:13:46.908Z,10.87
2022-12-12T09:16:14.706Z,11.57
2022-12-12T09:18:48.195Z,10.63
2022-12-12T09:21:15.940Z,10.80
2022-12-12T09:23:46.100Z,9.67
2022-12-12T09:26:13.280Z,10.10
2022-12-12T09:28:40.969Z,9.30
2022-12-12T09:31:09.672Z,9.77
2022-12-12T09:33:36.937Z,9.47
2022-12-12T09:36:06.535Z,9.30
2022-12-12T09:38:34.304Z,9.23
2022-12-12T09:41:03.969Z,9.47
2022-12-12T09:43:37.451Z,9.87
2022-12-12T09:46:15.866Z,9.37
2022-12-12T09:48:45.961Z,8.97
2022-12-12T09:51:13.676Z,8.83
2022-12-12T09:53:43.584Z,8.67
2022-12-12T09:56:21.803Z,9.50
2022-12-12T09:58:59.705Z,8.47
2022-12-12T10:01:34.518Z,9.40
2022-12-12T10:04:21.421Z,9.17
2022-12-12T10:06:59.312Z,9.40
2022-12-12T10:09:48.528Z,8.57
2022-12-12T10:12:17.023Z,8.20
2022-12-12T10:14:47.805Z,9.00
2022-12-12T10:17:39.621Z,8.53
2022-12-12T10:20:22.828Z,7.80
2022-12-12T10:23:00.888Z,7.57
2022-12-12T10:25:41.054Z,8.23
2022-12-12T10:28:16.923Z,7.50
2022-12-12T10:31:03.146Z,8.07
2022-12-12T10:33:56.914Z,7.70
2022-12-12T10:36:54.480Z,7.97
2022-12-12T10:39:38.162Z,7.40
2022-12-12T10:42:05.259Z,6.63
2022-12-12T10:44:49.567Z,6.67
2022-12-12T10:47:16.566Z,6.57
2022-12-12T10:49:43.598Z,7.27
2022-12-12T10:52:22.228Z,6.60
2022-12-12T10:54:55.950Z,6.47
2022-12-12T10:57:25.467Z,6.23
2022-12-12T10:59:55.015Z,7.00
2022-12-12T11:02:37.874Z,6.20
2022-12-12T11:05:08.302Z,5.60
2022-12-12T11:08:02.364Z,6.33
2022-12-12T11:10:35.224Z,5.80
2022-12-12T11:13:16.297Z,5.63
2022-12-12T11:16:13.107Z,6.03
2022-12-12T11:18:40.655Z,6.50
2022-12-12T11:21:11.484Z,6.70
2022-12-12T11:23:52.361Z,6.60
2022-12-12T11:26:21.672Z,7.40
2022-12-12T11:28:58.110Z,7.97
2022-12-12T11:31:28.754Z,7.67
2022-12-12T11:33:59.060Z,7.80
2022-12-12T11:36:41.525Z,7.60
2022-12-12T11:39:21.400Z,8.03
2022-12-12T11:42:17.346Z,8.07
2022-12-12T11:44:45.375Z,6.83
2022-12-12T11:47:18.281Z,8.03
2022-12-12T11:49:54.013Z,7.27
2022-12-12T11:52:33.075Z,7.93
2022-12-12T11:55:01.859Z,7.40
2022-12-12T11:57:31.786Z,7.77
2022-12-12T12:00:07.476Z,8.03
2022-12-12T12:02:57.687Z,7.63
2022-12-12T12:05:37.364Z,7.37
2022-12-12T12:08:16.551Z,7.83
2022-12-12T12:10:46.311Z,7.80
2022-12-12T12:13:41.270Z,7.83
2022-12-12T12:16:33.532Z,7.53
2022-12-12T12:19:14.611Z,8.37
2022-12-12T12:22:02.982Z,8.23
2022-12-12T12:24:50.567Z,7.80
2022-12-12T12:27:44.438Z,8.10
2022-12-12T12:30:47.923Z,8.53
2022-12-12T12:33:39.407Z,7.80
2022-12-12T12:36:28.358Z,8.67
2022-12-12T12:39:15.510Z,8.90
2022-12-12T12:42:20.775Z,8.37
2022-12-12T12:44:52.713Z,8.37
2022-12-12T12:47:22.265Z,8.77
2022-12-12T12:50:04.309Z,9.30
2022-12-12T12:52:38.782Z,8.97
2022-12-12T12:55:14.928Z,9.00
2022-12-12T12:57:47.993Z,9.03
2022-12-12T13:00:17.242Z,9.07
2022-12-12T13:03:01.496Z,9.13
2022-12-12T13:05:42.906Z,9.03
2022-12-12T13:08:28.223Z,9.47
2022-12-12T13:11:00.116Z,9.87
2022-12-12T13:13:36.774Z,9.57
2022-12-12T13:16:18.138Z,9.07
2022-12-12T13:18:47.983Z,8.93
2022-12-12T13:21:35.306Z,8.97
2022-12-12T13:24:21.296Z,8.53
2022-12-12T13:27:47.933Z,8.73
2022-12-12T13:30:30.990Z,8.87
2022-12-12T13:33:23.559Z,10.57
2022-12-12T13:35:54.746Z,8.70
2022-12-12T13:38:31.025Z,9.03
2022-12-12T13:41:04.529Z,9.03
2022-12-12T13:43:33.945Z,9.37
2022-12-12T13:46:20.548Z,10.43
2022-12-12T13:48:53.590Z,9.70
2022-12-12T13:51:32.294Z,9.47
2022-12-12T13:54:12.496Z,10.00
2022-12-12T13:57:01.198Z,9.47
2022-12-12T13:59:31.386Z,9.90
2022-12-12T14:02:30.643Z,9.57
2022-12-12T14:05:25.397Z,9.97
2022-12-12T14:08:00.917Z,10.13
2022-12-12T14:10:40.130Z,10.13
2022-12-12T14:13:22.081Z,11.13
2022-12-12T14:15:57.097Z,10.93
2022-12-12T14:18:35.648Z,10.67
2022-12-12T14:21:15.448Z,11.07
2022-12-12T14:23:45.533Z,11.20
2022-12-12T14:26:27.959Z,10.40
2022-12-12T14:29:16.782Z,10.30
2022-12-12T14:32:01.159Z,10.30
2022-12-12T14:34:46.762Z,10.47
2022-12-12T14:37:47.033Z,10.67
2022-12-12T14:40:18.731Z,10.83
2022-12-12T14:43:20.357Z,10.83
2022-12-12T14:45:56.441Z,10.63
2022-12-12T14:48:38.200Z,10.73
2022-12-12T14:51:30.168Z,9.93
2022-12-12T14:53:59.340Z,9.90
2022-12-12T14:56:47.675Z,10.33
2022-12-12T14:59:25.705Z,10.10
2022-12-12T15:01:59.985Z,10.07
2022-12-12T15:04:32.710Z,10.23
2022-12-12T15:07:05.566Z,9.53
2022-12-12T15:09:34.671Z,9.60
2022-12-12T15:12:10.836Z,9.73
2022-12-12T15:14:53.276Z,9.47
2022-12-12T15:17:28.990Z,9.47
2022-12-12T15:20:05.822Z,9.57
2022-12-12T15:22:39.198Z,9.43
2022-12-12T15:25:38.738Z,10.30
2022-12-12T15:28:05.903Z,9.77
2022-12-12T15:30:42.585Z,9.20
2022-12-12T15:33:20.070Z,9.23
2022-12-12T15:36:02.306Z,10.13
2022-12-12T15:38:30.044Z,9.77
2022-12-12T15:41:09.621Z,9.50
2022-12-12T15:43:44.702Z,9.37
2022-12-12T15:46:17.352Z,10.30
2022-12-12T15:48:49.894Z,9.63
2022-12-12T15:51:24.693Z,9.80
2022-12-12T15:53:55.530Z,9.80
2022-12-12T15:56:22.646Z,10.20
2022-12-12T15:59:09.379Z,9.77
2022-12-12T16:01:40.059Z,9.10
2022-12-12T16:04:10.252Z,9.03
2022-12-12T16:06:43.163Z,10.03
2022-12-12T16:09:10.476Z,9.47
2022-12-12T16:12:00.597Z,9.80
2022-12-12T16:14:41.808Z,9.53
2022-12-12T16:17:12.691Z,10.40
2022-12-12T16:19:44.780Z,9.53
2022-12-12T16:22:34.072Z,10.03
2022-12-12T16:25:12.501Z,9.47
2022-12-12T16:27:42.286Z,9.80
2022-12-12T16:30:13.200Z,10.83
2022-12-12T16:32:43.517Z,10.10
2022-12-12T16:35:16.032Z,9.70
2022-12-12T16:37:43.343Z,9.30
2022-12-12T16:40:14.959Z,9.23
2022-12-12T16:42:54.736Z,9.57
2022-12-12T16:45:24.423Z,9.30
2022-12-12T16:47:52.001Z,9.87
2022-12-12T16:50:25.302Z,9.60
2022-12-12T16:52:55.783Z,9.53
2022-12-12T16:55:27.388Z,9.43
2022-12-12T16:57:57.298Z,9.47
2022-12-12T17:00:28.141Z,10.50
2022-12-12T17:02:57.715Z,10.13
2022-12-12T17:05:45.698Z,9.97
2022-12-12T17:08:16.192Z,10.13
2022-12-12T17:10:48.908Z,10.50
2022-12-12T17:13:20.665Z,10.10
2022-12-12T17:15:49.351Z,10.07
2022-12-12T17:18:16.980Z,9.40
2022-12-12T17:20:44.210Z,10.07
2022-12-12T17:23:29.160Z,10.00
2022-12-12T17:26:03.132Z,9.70
2022-12-12T17:28:33.585Z,8.83
2022-12-12T17:31:06.129Z,10.20
2022-12-12T17:33:33.407Z,9.40
2022-12-12T17:36:03.104Z,9.63
2022-12-12T17:38:32.976Z,9.40
2022-12-12T17:41:05.087Z,9.00
2022-12-12T17:43:32.029Z,8.77
2022-12-12T17:46:03.246Z,9.43
2022-12-12T17:48:35.106Z,8.73
2022-12-12T17:51:05.553Z,9.27
2022-12-12T17:53:38.253Z,9.03
2022-12-12T17:56:09.878Z,8.70
2022-12-12T17:58:38.420Z,10.00
2022-12-12T18:01:23.981Z,9.30
2022-12-12T18:03:52.143Z,9.17
2022-12-12T18:06:20.539Z,9.03
2022-12-12T18:08:48.710Z,9.23
2022-12-12T18:11:18.632Z,9.67
2022-12-12T18:13:49.666Z,9.67
2022-12-12T18:16:17.835Z,9.90
2022-12-12T18:18:44.935Z,8.90
2022-12-12T18:21:51.791Z,9.27
2022-12-12T18:24:07.913Z,9.07
2022-12-12T18:26:35.018Z,9.40
2022-12-12T18:29:07.810Z,9.17
2022-12-12T18:31:35.724Z,10.40
2022-12-12T18:34:03.219Z,9.67
2022-12-12T18:36:31.041Z,9.50
2022-12-12T18:38:59.891Z,10.20
2022-12-12T18:41:28.377Z,10.23
2022-12-12T18:43:56.020Z,9.87
2022-12-12T18:46:27.826Z,10.07
2022-12-12T18:48:54.834Z,10.20
2022-12-12T18:51:24.694Z,10.40
2022-12-12T18:53:54.044Z,9.77
2022-12-12T18:56:24.090Z,9.90
2022-12-12T18:58:53.644Z,10.07
2022-12-12T19:01:23.314Z,10.97
2022-12-12T19:03:53.046Z,10.03
2022-12-12T19:06:22.906Z,10.87
2022-12-12T19:08:50.629Z,10.13
2022-12-12T19:11:17.978Z,9.80
2022-12-12T19:13:46.460Z,9.77
2022-12-12T19:16:17.499Z,9.40
2022-12-12T19:18:44.917Z,9.70
2022-12-12T19:21:23.982Z,9.63
2022-12-12T19:23:51.950Z,9.30
2022-12-12T19:26:28.337Z,9.93
2022-12-12T19:29:03.662Z,9.33
2022-12-12T19:31:33.514Z,9.07
2022-12-12T19:34:01.076Z,9.03
2022-12-12T19:36:28.735Z,9.30
2022-12-12T19:38:58.804Z,9.47
2022-12-12T19:41:26.057Z,9.20
2022-12-12T19:43:54.105Z,9.87
2022-12-12T19:46:23.610Z,9.23
2022-12-12T19:49:02.746Z,9.97
2022-12-12T19:51:36.092Z,10.13
2022-12-12T19:54:16.069Z,9.63
2022-12-12T19:56:43.845Z,9.63
2022-12-12T20:02:01.097Z,9.80
2022-12-12T20:04:30.254Z,10.07
2022-12-12T20:06:57.670Z,9.20
2022-12-12T20:09:34.573Z,11.20
2022-12-12T20:12:02.034Z,11.17
2022-12-12T20:14:32.055Z,11.00
2022-12-12T20:16:59.286Z,10.70
2022-12-12T20:19:27.939Z,10.10
2022-12-12T20:22:03.578Z,10.27
2022-12-12T20:24:33.449Z,10.47
2022-12-12T20:27:03.344Z,10.23
2022-12-12T20:29:31.261Z,10.07
2022-12-12T20:32:00.158Z,10.50
2022-12-12T20:34:27.696Z,10.30
2022-12-12T20:36:55.812Z,10.20
2022-12-12T20:39:24.963Z,10.67
2022-12-12T20:41:53.954Z,10.53
2022-12-12T20:44:22.535Z,10.17
2022-12-12T20:46:49.649Z,10.53
2022-12-12T20:49:18.756Z,10.83
2022-12-12T20:51:55.190Z,10.60
2022-12-12T20:54:24.432Z,10.10
2022-12-12T20:56:52.380Z,10.07
2022-12-12T20:59:19.303Z,10.70
2022-12-12T21:01:47.440Z,11.03
2022-12-12T21:04:15.271Z,10.53
2022-12-12T21:06:44.746Z,10.93
2022-12-12T21:09:16.175Z,10.23
2022-12-12T21:11:46.350Z,11.07
2022-12-12T21:14:13.245Z,11.07
2022-12-12T21:16:40.702Z,10.83
2022-12-12T21:19:11.391Z,10.73
2022-12-12T21:21:43.137Z,11.60
2022-12-12T21:24:15.750Z,11.93
2022-12-12T21:26:43.070Z,11.63
2022-12-12T21:29:10.267Z,11.97
2022-12-12T21:31:48.177Z,11.13
2022-12-12T21:34:17.422Z,12.10
2022-12-12T21:36:44.681Z,11.50
2022-12-12T21:39:13.171Z,11.60
2022-12-12T21:41:43.766Z,11.03
2022-12-12T21:44:11.971Z,11.20
2022-12-12T21:46:42.074Z,10.40
2022-12-12T21:49:28.114Z,10.43
2022-12-12T21:51:57.985Z,10.17
2022-12-12T21:54:31.582Z,10.57
2022-12-12T21:57:00.383Z,10.73
2022-12-12T21:59:28.433Z,10.57
2022-12-12T22:02:03.819Z,11.03
2022-12-12T22:04:31.074Z,10.53
2022-12-12T22:06:58.575Z,11.30
2022-12-12T22:09:26.556Z,11.30
2022-12-12T22:12:04.320Z,12.43
2022-12-12T22:14:33.271Z,11.17
2022-12-12T22:17:00.388Z,12.70
2022-12-12T22:19:27.670Z,12.90
2022-12-12T22:21:57.835Z,12.30
2022-12-12T22:24:26.085Z,14.00
2022-12-12T22:26:52.941Z,13.10
2022-12-12T22:29:20.961Z,13.07
2022-12-12T22:31:50.472Z,12.47
2022-12-12T22:34:23.628Z,13.00
2022-12-12T22:36:51.820Z,13.20
2022-12-12T22:39:21.705Z,13.47
2022-12-12T22:41:50.210Z,12.20
2022-12-12T22:44:19.136Z,12.70
2022-12-12T22:46:47.797Z,12.83
2022-12-12T22:49:18.034Z,11.97
2022-12-12T22:51:45.361Z,11.97
2022-12-12T22:54:12.572Z,12.20
2022-12-12T22:56:40.845Z,12.43
2022-12-12T22:59:08.354Z,13.13
2022-12-12T23:01:35.213Z,14.43
2022-12-12T23:04:02.962Z,13.90
2022-12-12T23:06:32.840Z,13.63
2022-12-12T23:09:05.551Z,13.10
2022-12-12T23:11:34.327Z,14.43
2022-12-12T23:14:04.748Z,13.43
2022-12-12T23:16:34.834Z,12.80
2022-12-12T23:19:05.172Z,12.67
2022-12-12T23:21:32.321Z,13.00
2022-12-12T23:23:59.170Z,11.70
2022-12-12T23:26:30.174Z,11.70
2022-12-12T23:28:58.935Z,11.07
2022-12-12T23:31:28.825Z,11.57
2022-12-12T23:33:58.604Z,11.07
2022-12-12T23:36:26.349Z,10.57
2022-12-12T23:38:58.304Z,10.43
2022-12-12T23:41:31.275Z,9.57
2022-12-12T23:44:01.967Z,10.20
2022-12-12T23:46:32.462Z,10.27
2022-12-12T23:49:08.359Z,10.57
2022-12-12T23:51:40.982Z,10.43
2022-12-12T23:54:12.605Z,9.80
2022-12-12T23:56:39.937Z,10.27
2022-12-12T23:59:07.258Z,9.67
